F/V Mailys Charlie — FMIW — position and weather

sailwx.info

Track history (hours):
 
Tides and Currents Weather Stations Pressure Air Temp Water Temp Dewpoint Dewpoint Depression Visibility Wind Speed Wind Dir Waves Ship Positions

F/V Mailys Charlie

Last reported at 2018-May-20 22:57 UTC. Time now 2018-May-20 23:00 UTC.
Position N 47°21' W 002°31'.

Length 19 m.

Type: Fishing. MMSI: 228240800.

Date/timePositionNaut miles runAvg speedWind from/ knotsBaromVisibWave heightAir tempDewpointWater temp
2018-May-20 22:57N 47°21' W 002°31'0 0.0
2018-May-20 22:15N 47°21' W 002°31'0 0.0
2018-May-20 22:00N 47°21' W 002°31'0 0.0
2018-May-20 21:29N 47°21' W 002°31'0 0.0
2018-May-20 20:42N 47°21' W 002°31'0 0.0
2018-May-20 20:14N 47°21' W 002°31'0 0.0
2018-May-20 19:48N 47°21' W 002°31'0 0.0
2018-May-20 19:22N 47°21' W 002°31'0 0.0
2018-May-20 18:59N 47°21' W 002°31'0 0.0
2018-May-20 18:30N 47°21' W 002°31'0 0.0
2018-May-20 17:55N 47°21' W 002°31'0 0.0
2018-May-20 17:26N 47°21' W 002°31'0 0.0
2018-May-20 16:57N 47°21' W 002°31'0 0.0
2018-May-20 16:29N 47°21' W 002°31'0 0.0
2018-May-20 15:59N 47°21' W 002°31'0 0.0
2018-May-20 15:28N 47°21' W 002°31'0 0.0
2018-May-20 14:58N 47°21' W 002°31'0 0.0
2018-May-20 14:30N 47°21' W 002°31'0 0.0
2018-May-20 14:00N 47°21' W 002°31'0 0.0
2018-May-20 13:27N 47°21' W 002°31'0 0.0
2018-May-20 12:58N 47°21' W 002°31'0 0.0
2018-May-20 12:24N 47°21' W 002°31'0 0.0
2018-May-20 11:58N 47°21' W 002°31'0 0.0
2018-May-20 11:27N 47°21' W 002°31'0 0.0
2018-May-20 10:59N 47°21' W 002°31'0 0.0
2018-May-20 10:28N 47°21' W 002°31'0 0.0
2018-May-20 10:00N 47°21' W 002°31'0 0.0
2018-May-20 09:14N 47°21' W 002°31'0 0.0
2018-May-20 08:38N 47°21' W 002°31'0 0.0
2018-May-20 06:53N 47°21' W 002°31'0 0.0
2018-May-20 06:27N 47°21' W 002°31'0 0.0
2018-May-20 05:52N 47°21' W 002°31'0 0.0
2018-May-20 05:30N 47°21' W 002°31'0 0.0
2018-May-20 05:00N 47°21' W 002°31'0 0.0
2018-May-20 04:30N 47°21' W 002°31'0 0.0
2018-May-20 03:59N 47°21' W 002°31'0 0.0
2018-May-20 03:30N 47°21' W 002°31'0 0.0
2018-May-20 03:00N 47°21' W 002°31'0 0.0
2018-May-20 02:30N 47°21' W 002°31'0 0.0
2018-May-20 01:59N 47°21' W 002°31'0 0.0
2018-May-20 01:30N 47°21' W 002°31'0 0.0
2018-May-20 00:54N 47°21' W 002°31'0 0.0
2018-May-20 00:29N 47°21' W 002°31'0 0.0
2018-May-19 23:57N 47°21' W 002°31'0 0.0
2018-May-19 23:30N 47°21' W 002°31'0 0.0
2018-May-19 22:58N 47°21' W 002°31'0 0.0
2018-May-19 22:30N 47°21' W 002°31'0 0.0
2018-May-19 21:54N 47°21' W 002°31'0 0.0
2018-May-19 21:27N 47°21' W 002°31'0 0.0
2018-May-19 20:59N 47°21' W 002°31'0 0.0
2018-May-19 20:26N 47°21' W 002°31'0 0.0
2018-May-19 19:50N 47°21' W 002°31'0 0.0
2018-May-19 19:24N 47°21' W 002°31'0 0.0
2018-May-19 19:00N 47°21' W 002°31'0 0.0
2018-May-19 18:30N 47°21' W 002°31'0 0.0
2018-May-19 18:00N 47°21' W 002°31'0 0.0
2018-May-19 17:30N 47°21' W 002°31'0 0.0
2018-May-19 16:59N 47°21' W 002°31'0 0.0
2018-May-19 16:30N 47°21' W 002°31'0 0.0
2018-May-19 16:00N 47°21' W 002°31'0 0.0
2018-May-19 15:30N 47°21' W 002°31'0 0.0
2018-May-19 15:00N 47°21' W 002°31'0 0.0
2018-May-19 14:30N 47°21' W 002°31'0 0.0
2018-May-19 11:34N 47°21' W 002°31'0 0.0
2018-May-19 11:24N 47°21' W 002°31'0 0.0
2018-May-19 10:58N 47°21' W 002°31'0 0.1
2018-May-19 10:15N 47°21' W 002°31'3 6.7
2018-May-19 09:50N 47°19' W 002°34'3 9.5
2018-May-19 09:29N 47°16' W 002°36'4 9.2
2018-May-19 09:00N 47°13' W 002°41'32 5.8
2018-May-19 03:32N 46°55' W 003°20'50 5.0
2018-May-18 17:31N 47°11' W 004°30'0 9.7
2018-May-18 17:30N 47°11' W 004°30'7 9.4
2018-May-18 16:43N 47°15' W 004°39'2 9.5
2018-May-18 16:30N 47°16' W 004°42'22 4.9
2018-May-18 12:03N 47°24' W 005°12'3 3.4
2018-May-18 11:02N 47°21' W 005°11'0 3.2
2018-May-18 11:00N 47°21' W 005°11'3 3.2
2018-May-18 10:11N 47°18' W 005°10'  
2018-May-16 02:52N 47°24' W 005°01'1 2.9
2018-May-16 02:27N 47°24' W 004°60'2 3.0
2018-May-16 01:51N 47°22' W 004°58'1 3.1
2018-May-16 01:30N 47°21' W 004°57'5 1.3
2018-May-15 21:28N 47°26' W 004°54'2 2.7
2018-May-15 20:53N 47°25' W 004°56'6 0.3
2018-May-15 00:07N 47°29' W 004°50'1 3.5
2018-May-14 23:51N 47°28' W 004°50'1 3.9
2018-May-14 23:28N 47°27' W 004°51'  
Track history (hours):
 
Tides and Currents Weather Stations Pressure Air Temp Water Temp Dewpoint Dewpoint Depression Visibility Wind Speed Wind Dir Waves Ship Positions

F/V Mailys Charlie

Last reported at 2018-May-20 22:57 UTC. Time now 2018-May-20 23:00 UTC.
Position N 47°21' W 002°31'.

Length 19 m.

Type: Fishing. MMSI: 228240800.

Date/timePositionNaut miles runAvg speedWind from/ knotsBaromVisibWave heightAir tempDewpointWater temp
2018-May-20 22:57N 47°21' W 002°31'0 0.0
2018-May-20 22:15N 47°21' W 002°31'0 0.0
2018-May-20 22:00N 47°21' W 002°31'0 0.0
2018-May-20 21:29N 47°21' W 002°31'0 0.0
2018-May-20 20:42N 47°21' W 002°31'0 0.0
2018-May-20 20:14N 47°21' W 002°31'0 0.0
2018-May-20 19:48N 47°21' W 002°31'0 0.0
2018-May-20 19:22N 47°21' W 002°31'0 0.0
2018-May-20 18:59N 47°21' W 002°31'0 0.0
2018-May-20 18:30N 47°21' W 002°31'0 0.0
2018-May-20 17:55N 47°21' W 002°31'0 0.0
2018-May-20 17:26N 47°21' W 002°31'0 0.0
2018-May-20 16:57N 47°21' W 002°31'0 0.0
2018-May-20 16:29N 47°21' W 002°31'0 0.0
2018-May-20 15:59N 47°21' W 002°31'0 0.0
2018-May-20 15:28N 47°21' W 002°31'0 0.0
2018-May-20 14:58N 47°21' W 002°31'0 0.0
2018-May-20 14:30N 47°21' W 002°31'0 0.0
2018-May-20 14:00N 47°21' W 002°31'0 0.0
2018-May-20 13:27N 47°21' W 002°31'0 0.0
2018-May-20 12:58N 47°21' W 002°31'0 0.0
2018-May-20 12:24N 47°21' W 002°31'0 0.0
2018-May-20 11:58N 47°21' W 002°31'0 0.0
2018-May-20 11:27N 47°21' W 002°31'0 0.0
2018-May-20 10:59N 47°21' W 002°31'0 0.0
2018-May-20 10:28N 47°21' W 002°31'0 0.0
2018-May-20 10:00N 47°21' W 002°31'0 0.0
2018-May-20 09:14N 47°21' W 002°31'0 0.0
2018-May-20 08:38N 47°21' W 002°31'0 0.0
2018-May-20 06:53N 47°21' W 002°31'0 0.0
2018-May-20 06:27N 47°21' W 002°31'0 0.0
2018-May-20 05:52N 47°21' W 002°31'0 0.0
2018-May-20 05:30N 47°21' W 002°31'0 0.0
2018-May-20 05:00N 47°21' W 002°31'0 0.0
2018-May-20 04:30N 47°21' W 002°31'0 0.0
2018-May-20 03:59N 47°21' W 002°31'0 0.0
2018-May-20 03:30N 47°21' W 002°31'0 0.0
2018-May-20 03:00N 47°21' W 002°31'0 0.0
2018-May-20 02:30N 47°21' W 002°31'0 0.0
2018-May-20 01:59N 47°21' W 002°31'0 0.0
2018-May-20 01:30N 47°21' W 002°31'0 0.0
2018-May-20 00:54N 47°21' W 002°31'0 0.0
2018-May-20 00:29N 47°21' W 002°31'0 0.0
2018-May-19 23:57N 47°21' W 002°31'0 0.0
2018-May-19 23:30N 47°21' W 002°31'0 0.0
2018-May-19 22:58N 47°21' W 002°31'0 0.0
2018-May-19 22:30N 47°21' W 002°31'0 0.0
2018-May-19 21:54N 47°21' W 002°31'0 0.0
2018-May-19 21:27N 47°21' W 002°31'0 0.0
2018-May-19 20:59N 47°21' W 002°31'0 0.0
2018-May-19 20:26N 47°21' W 002°31'0 0.0
2018-May-19 19:50N 47°21' W 002°31'0 0.0
2018-May-19 19:24N 47°21' W 002°31'0 0.0
2018-May-19 19:00N 47°21' W 002°31'0 0.0
2018-May-19 18:30N 47°21' W 002°31'0 0.0
2018-May-19 18:00N 47°21' W 002°31'0 0.0
2018-May-19 17:30N 47°21' W 002°31'0 0.0
2018-May-19 16:59N 47°21' W 002°31'0 0.0
2018-May-19 16:30N 47°21' W 002°31'0 0.0
2018-May-19 16:00N 47°21' W 002°31'0 0.0
2018-May-19 15:30N 47°21' W 002°31'0 0.0
2018-May-19 15:00N 47°21' W 002°31'0 0.0
2018-May-19 14:30N 47°21' W 002°31'0 0.0
2018-May-19 11:34N 47°21' W 002°31'0 0.0
2018-May-19 11:24N 47°21' W 002°31'0 0.0
2018-May-19 10:58N 47°21' W 002°31'0 0.1
2018-May-19 10:15N 47°21' W 002°31'3 6.7
2018-May-19 09:50N 47°19' W 002°34'3 9.5
2018-May-19 09:29N 47°16' W 002°36'4 9.2
2018-May-19 09:00N 47°13' W 002°41'32 5.8
2018-May-19 03:32N 46°55' W 003°20'50 5.0
2018-May-18 17:31N 47°11' W 004°30'0 9.7
2018-May-18 17:30N 47°11' W 004°30'7 9.4
2018-May-18 16:43N 47°15' W 004°39'2 9.5
2018-May-18 16:30N 47°16' W 004°42'22 4.9
2018-May-18 12:03N 47°24' W 005°12'3 3.4
2018-May-18 11:02N 47°21' W 005°11'0 3.2
2018-May-18 11:00N 47°21' W 005°11'3 3.2
2018-May-18 10:11N 47°18' W 005°10'  
2018-May-16 02:52N 47°24' W 005°01'1 2.9
2018-May-16 02:27N 47°24' W 004°60'2 3.0
2018-May-16 01:51N 47°22' W 004°58'1 3.1
2018-May-16 01:30N 47°21' W 004°57'5 1.3
2018-May-15 21:28N 47°26' W 004°54'2 2.7
2018-May-15 20:53N 47°25' W 004°56'6 0.3
2018-May-15 00:07N 47°29' W 004°50'1 3.5
2018-May-14 23:51N 47°28' W 004°50'1 3.9
2018-May-14 23:28N 47°27' W 004°51'  

Dump ship's entire track history